Time Latitude Longitude Accuracy (66% radius in meters) Altitude (meters) Speed (km/hour) Bearing (degrees) Battery (%) GPS flag
07:20:27 57.204207 60.119120 5.3600001335144 330.34301757812 2.3800001144409 348.79998779297 82 1 delete
07:20:24 57.204142 60.119075 4.2880001068115 327.39672851562 2.4000000953674 23 82 1 delete
07:20:20 57.204048 60.118962 4.2880001068115 326.35229492188 2.2200000286102 16.299999237061 82 1 delete
07:20:17 57.203975 60.118896 4.2880001068115 326.01159667969 1.8700000047684 35.799999237061 82 1 delete
07:20:16 57.203956 60.118870 3.2160000801086 325.44757080078 1.7999999523163 36.200000762939 82 1 delete
07:20:12 57.203891 60.118732 3.2160000801086 325.81665039062 1.6399999856949 48.700000762939 82 1 delete
07:20:08 57.203828 60.118542 3.2160000801086 326.79125976562 1.5499999523163 60.599998474121 82 1 delete
07:20:06 57.203803 60.118408 3.2160000801086 326.86309814453 1.5299999713898 78.300003051758 82 1 delete
07:20:05 57.203807 60.118378 3.2160000801086 327.318359375 1.5 78 82 1 delete
07:20:01 57.203813 60.118189 3.2160000801086 328.30847167969 1.4400000572205 86 82 1 delete
07:19:56 57.203882 60.118229 3.2160000801086 328.25225830078 1.2000000476837 204.30000305176 82 1 delete
07:19:46 57.203889 60.118235 3.2160000801086 328.62731933594 0 0 82 1 delete
07:19:35 57.203889 60.118235 3.2160000801086 327.73571777344 0 0 82 1 delete
07:19:25 57.203889 60.118235 3.2160000801086 327.94671630859 0 0 82 1 delete
07:19:15 57.203889 60.118235 3.2160000801086 327.93688964844 0 0 82 1 delete
07:19:04 57.203889 60.118235 3.2160000801086 327.93823242188 0 0 82 1 delete
07:18:54 57.203889 60.118235 3.2160000801086 327.95013427734 0 0 82 1 delete
07:18:43 57.203889 60.118235 3.2160000801086 327.9501953125 0 0 82 1 delete
07:18:33 57.203889 60.118235 3.2160000801086 327.95568847656 0 0 82 1 delete
07:18:23 57.203889 60.118235 3.2160000801086 328.00079345703 0 0 82 1 delete
07:18:12 57.203889 60.118235 3.2160000801086 327.37841796875 0 0 82 1 delete
07:18:02 57.203888 60.118237 3.2160000801086 326.95043945312 0 0 82 1 delete
07:17:52 57.203888 60.118237 3.2160000801086 326.91864013672 0 0 82 1 delete
07:17:42 57.203888 60.118237 3.2160000801086 326.90277099609 0 0 82 1 delete
07:17:31 57.203888 60.118237 3.2160000801086 326.86730957031 0 0 82 1 delete
07:17:21 57.203888 60.118237 3.2160000801086 326.87121582031 0 0 82 1 delete
07:17:10 57.203888 60.118237 3.2160000801086 326.87719726562 0 0 82 1 delete
07:17:00 57.203888 60.118237 3.2160000801086 326.86547851562 0 0 82 1 delete
07:16:49 57.203888 60.118237 3.2160000801086 326.83093261719 0 0 82 1 delete
07:16:39 57.203888 60.118237 3.2160000801086 326.74487304688 0 0 82 1 delete
07:16:29 57.203888 60.118237 3.2160000801086 326.73156738281 0 0 82 1 delete
07:16:18 57.203888 60.118237 3.2160000801086 326.72515869141 0 0 82 1 delete
07:16:08 57.203888 60.118237 3.2160000801086 326.7119140625 0 0 82 1 delete
07:15:57 57.203888 60.118237 3.2160000801086 326.70007324219 0 0 82 1 delete
07:15:47 57.203890 60.118236 3.2160000801086 326.74517822266 0 0 82 1 delete
07:15:37 57.203898 60.118232 3.2160000801086 326.25408935547 0 0 82 1 delete
07:15:26 57.203900 60.118224 3.2160000801086 326.11810302734 0 0 82 1 delete
07:15:16 57.203898 60.118224 3.2160000801086 326.17150878906 0 0 82 1 delete
07:15:05 57.203899 60.118224 3.2160000801086 326.16027832031 0 0 82 1 delete
07:14:55 57.203899 60.118224 3.2160000801086 326.11779785156 0 0 82 1 delete
07:14:44 57.203899 60.118224 3.2160000801086 326.11291503906 0 0 82 1 delete
07:14:34 57.203901 60.118226 3.2160000801086 327.08740234375 0 0 82 1 delete
07:14:23 57.203897 60.118234 3.2160000801086 326.48083496094 0 0 82 1 delete
07:14:13 57.203901 60.118236 3.2160000801086 325.4580078125 0 0 82 1 delete
07:14:02 57.203908 60.118255 3.2160000801086 324.09777832031 0 0 82 1 delete
07:13:55 57.203995 60.118172 4.2880001068115 321.9296875 1.6299999952316 118.69999694824 88 1 delete
07:13:50 57.204039 60.118065 4.2880001068115 319.34930419922 1.710000038147 138 88 1 delete
07:13:49 57.204057 60.118036 4.2880001068115 319.18200683594 1.6799999475479 138.39999389648 88 1 delete
07:13:45 57.204129 60.117934 4.2880001068115 319.21643066406 1.5599999427795 136.80000305176 88 1 delete
07:13:41 57.204206 60.117824 4.2880001068115 318.62799072266 1.4800000190735 130.80000305176 88 1 delete